sensor_id;sensor_type;location;lat;lon;timestamp;pressure;altitude;pressure_sealevel;temperature;humidity
22025;BME280;11176;51.448;6.650;2023-01-25T00:02:22;45733.97;;;-141.29;89.23
22025;BME280;11176;51.448;6.650;2023-01-25T00:04:48;45749.97;;;-141.29;88.84
22025;BME280;11176;51.448;6.650;2023-01-25T00:07:15;45731.97;;;-141.29;87.42
22025;BME280;11176;51.448;6.650;2023-01-25T00:09:41;45733.97;;;-141.29;87.69
22025;BME280;11176;51.448;6.650;2023-01-25T00:12:08;45745.97;;;-141.29;87.70
22025;BME280;11176;51.448;6.650;2023-01-25T00:14:34;45741.97;;;-141.29;88.11
22025;BME280;11176;51.448;6.650;2023-01-25T00:17:01;45747.97;;;-141.29;88.51
22025;BME280;11176;51.448;6.650;2023-01-25T00:19:28;45757.97;;;-141.29;88.21
22025;BME280;11176;51.448;6.650;2023-01-25T00:21:54;45741.97;;;-141.29;87.59
22025;BME280;11176;51.448;6.650;2023-01-25T00:24:21;45733.97;;;-141.29;87.73
22025;BME280;11176;51.448;6.650;2023-01-25T00:26:51;45737.97;;;-141.29;88.40
22025;BME280;11176;51.448;6.650;2023-01-25T00:29:17;45757.97;;;-141.29;88.68
22025;BME280;11176;51.448;6.650;2023-01-25T00:37:12;45735.97;;;-141.29;86.15
22025;BME280;11176;51.448;6.650;2023-01-25T00:39:39;45729.97;;;-141.29;87.60
22025;BME280;11176;51.448;6.650;2023-01-25T00:42:09;45729.97;;;-141.29;88.43
22025;BME280;11176;51.448;6.650;2023-01-25T00:44:37;45733.97;;;-141.29;87.03
22025;BME280;11176;51.448;6.650;2023-01-25T00:47:04;45737.97;;;-141.29;85.28
22025;BME280;11176;51.448;6.650;2023-01-25T00:49:33;45737.97;;;-141.29;86.63
22025;BME280;11176;51.448;6.650;2023-01-25T00:52:00;45725.97;;;-141.29;88.06
22025;BME280;11176;51.448;6.650;2023-01-25T00:54:26;45745.97;;;-141.29;88.76
22025;BME280;11176;51.448;6.650;2023-01-25T00:56:53;45741.97;;;-141.29;88.58
22025;BME280;11176;51.448;6.650;2023-01-25T00:59:23;45731.97;;;-141.29;87.19
22025;BME280;11176;51.448;6.650;2023-01-25T01:01:52;45741.97;;;-141.29;87.38
22025;BME280;11176;51.448;6.650;2023-01-25T01:04:19;45743.97;;;-141.29;87.53
22025;BME280;11176;51.448;6.650;2023-01-25T01:06:51;45755.97;;;-141.29;87.54
22025;BME280;11176;51.448;6.650;2023-01-25T01:09:19;45710.00;;;-141.29;85.88
22025;BME280;11176;51.448;6.650;2023-01-25T01:11:46;45743.97;;;-141.29;85.53
22025;BME280;11176;51.448;6.650;2023-01-25T01:14:13;45745.97;;;-141.29;85.67
22025;BME280;11176;51.448;6.650;2023-01-25T01:16:40;45757.97;;;-141.29;87.16
22025;BME280;11176;51.448;6.650;2023-01-25T01:19:08;45749.97;;;-141.29;87.49
22025;BME280;11176;51.448;6.650;2023-01-25T01:21:35;45729.97;;;-141.29;88.07
22025;BME280;11176;51.448;6.650;2023-01-25T01:24:01;45733.97;;;-141.29;87.78
22025;BME280;11176;51.448;6.650;2023-01-25T01:26:28;45735.97;;;-141.29;88.03
22025;BME280;11176;51.448;6.650;2023-01-25T01:28:54;45749.97;;;-141.29;88.55
22025;BME280;11176;51.448;6.650;2023-01-25T01:31:22;45753.97;;;-141.29;88.73
22025;BME280;11176;51.448;6.650;2023-01-25T01:34:04;45745.97;;;-141.29;89.74
22025;BME280;11176;51.448;6.650;2023-01-25T01:36:31;45741.97;;;-141.29;90.40
22025;BME280;11176;51.448;6.650;2023-01-25T01:39:00;45741.97;;;-141.29;89.33
22025;BME280;11176;51.448;6.650;2023-01-25T01:41:27;45733.97;;;-141.29;89.50
22025;BME280;11176;51.448;6.650;2023-01-25T01:43:53;45765.97;;;-141.29;89.18
22025;BME280;11176;51.448;6.650;2023-01-25T01:46:28;45749.97;;;-141.29;89.55
22025;BME280;11176;51.448;6.650;2023-01-25T01:49:05;45753.97;;;-141.29;89.71
22025;BME280;11176;51.448;6.650;2023-01-25T01:51:41;45745.97;;;-141.29;90.12
22025;BME280;11176;51.448;6.650;2023-01-25T01:54:20;45739.97;;;-141.29;90.15
22025;BME280;11176;51.448;6.650;2023-01-25T01:59:40;45753.97;;;-141.29;89.85
22025;BME280;11176;51.448;6.650;2023-01-25T02:02:08;45745.97;;;-141.29;89.49
22025;BME280;11176;51.448;6.650;2023-01-25T02:04:35;45747.97;;;-141.29;88.76
22025;BME280;11176;51.448;6.650;2023-01-25T02:07:16;45745.97;;;-141.29;88.79
22025;BME280;11176;51.448;6.650;2023-01-25T02:09:47;45769.97;;;-141.29;89.32
22025;BME280;11176;51.448;6.650;2023-01-25T02:12:17;45765.97;;;-141.29;88.61
22025;BME280;11176;51.448;6.650;2023-01-25T02:14:48;45757.97;;;-141.29;89.08
22025;BME280;11176;51.448;6.650;2023-01-25T02:17:23;45737.97;;;-141.29;89.13
22025;BME280;11176;51.448;6.650;2023-01-25T02:22:58;45767.97;;;-141.29;88.85
22025;BME280;11176;51.448;6.650;2023-01-25T02:25:26;45741.97;;;-141.29;88.07
22025;BME280;11176;51.448;6.650;2023-01-25T02:27:56;45755.97;;;-141.29;87.84
22025;BME280;11176;51.448;6.650;2023-01-25T02:30:26;45765.97;;;-141.29;87.71
22025;BME280;11176;51.448;6.650;2023-01-25T02:32:53;45743.97;;;-141.29;87.93
22025;BME280;11176;51.448;6.650;2023-01-25T02:35:36;45765.97;;;-141.29;87.82
22025;BME280;11176;51.448;6.650;2023-01-25T02:38:04;45765.97;;;-141.29;88.45
22025;BME280;11176;51.448;6.650;2023-01-25T02:40:37;45761.97;;;-141.29;88.12
22025;BME280;11176;51.448;6.650;2023-01-25T02:43:06;45749.97;;;-141.29;88.80
22025;BME280;11176;51.448;6.650;2023-01-25T02:45:33;45757.97;;;-141.29;88.58
22025;BME280;11176;51.448;6.650;2023-01-25T02:48:00;45757.97;;;-141.29;89.41
22025;BME280;11176;51.448;6.650;2023-01-25T02:50:27;45757.97;;;-141.29;90.13
22025;BME280;11176;51.448;6.650;2023-01-25T02:52:54;45745.97;;;-141.29;89.33
22025;BME280;11176;51.448;6.650;2023-01-25T02:55:21;45733.97;;;-141.29;89.20
22025;BME280;11176;51.448;6.650;2023-01-25T02:57:48;45739.97;;;-141.29;89.11
22025;BME280;11176;51.448;6.650;2023-01-25T03:00:15;45761.97;;;-141.29;89.15
22025;BME280;11176;51.448;6.650;2023-01-25T03:02:43;45753.97;;;-141.29;90.18
22025;BME280;11176;51.448;6.650;2023-01-25T03:05:10;45753.97;;;-141.29;89.49
22025;BME280;11176;51.448;6.650;2023-01-25T03:07:37;45763.97;;;-141.29;89.03
22025;BME280;11176;51.448;6.650;2023-01-25T03:10:04;45737.97;;;-141.29;89.09
22025;BME280;11176;51.448;6.650;2023-01-25T03:12:33;45761.97;;;-141.29;88.28
22025;BME280;11176;51.448;6.650;2023-01-25T03:15:00;45759.97;;;-141.29;89.16
22025;BME280;11176;51.448;6.650;2023-01-25T03:17:26;45755.97;;;-141.29;89.63
22025;BME280;11176;51.448;6.650;2023-01-25T03:19:53;45773.94;;;-141.29;89.78
22025;BME280;11176;51.448;6.650;2023-01-25T03:22:20;45761.97;;;-141.29;90.21
22025;BME280;11176;51.448;6.650;2023-01-25T03:24:47;45753.97;;;-141.29;89.91
22025;BME280;11176;51.448;6.650;2023-01-25T03:27:15;45773.94;;;-141.29;89.80
22025;BME280;11176;51.448;6.650;2023-01-25T03:29:50;45775.94;;;-141.29;90.22
22025;BME280;11176;51.448;6.650;2023-01-25T03:32:22;45753.97;;;-141.29;90.40
22025;BME280;11176;51.448;6.650;2023-01-25T03:34:48;45783.94;;;-141.29;89.87
22025;BME280;11176;51.448;6.650;2023-01-25T03:37:17;45765.97;;;-141.29;89.49
22025;BME280;11176;51.448;6.650;2023-01-25T03:39:43;45773.94;;;-141.29;89.72
22025;BME280;11176;51.448;6.650;2023-01-25T03:42:10;45725.97;;;-141.29;90.13
22025;BME280;11176;51.448;6.650;2023-01-25T03:44:38;45761.97;;;-141.29;90.16
22025;BME280;11176;51.448;6.650;2023-01-25T03:47:04;45765.97;;;-141.29;90.71
22025;BME280;11176;51.448;6.650;2023-01-25T03:49:31;45763.97;;;-141.29;90.34
22025;BME280;11176;51.448;6.650;2023-01-25T03:51:59;45769.97;;;-141.29;90.20
22025;BME280;11176;51.448;6.650;2023-01-25T03:54:34;45757.97;;;-141.29;90.43
22025;BME280;11176;51.448;6.650;2023-01-25T03:57:01;45741.97;;;-141.29;90.60
22025;BME280;11176;51.448;6.650;2023-01-25T03:59:29;45761.97;;;-141.29;90.55
22025;BME280;11176;51.448;6.650;2023-01-25T04:01:56;45769.97;;;-141.29;89.92
22025;BME280;11176;51.448;6.650;2023-01-25T04:04:22;45771.94;;;-141.29;90.09
22025;BME280;11176;51.448;6.650;2023-01-25T04:06:49;45765.97;;;-141.29;90.33
22025;BME280;11176;51.448;6.650;2023-01-25T04:09:16;45753.97;;;-141.29;91.16
22025;BME280;11176;51.448;6.650;2023-01-25T04:11:49;45769.97;;;-141.29;90.85
22025;BME280;11176;51.448;6.650;2023-01-25T04:14:16;45745.97;;;-141.29;90.53
22025;BME280;11176;51.448;6.650;2023-01-25T04:16:58;45767.97;;;-141.29;90.11
22025;BME280;11176;51.448;6.650;2023-01-25T04:19:25;45765.97;;;-141.29;88.40
22025;BME280;11176;51.448;6.650;2023-01-25T04:21:56;45773.94;;;-141.29;88.43
22025;BME280;11176;51.448;6.650;2023-01-25T04:24:27;45773.94;;;-141.29;88.89
22025;BME280;11176;51.448;6.650;2023-01-25T04:26:53;45761.97;;;-141.29;88.91
22025;BME280;11176;51.448;6.650;2023-01-25T04:29:20;45753.97;;;-141.29;89.70
22025;BME280;11176;51.448;6.650;2023-01-25T04:32:04;45763.97;;;-141.29;88.80
22025;BME280;11176;51.448;6.650;2023-01-25T04:34:31;45765.97;;;-141.29;90.45
22025;BME280;11176;51.448;6.650;2023-01-25T04:36:58;45745.97;;;-141.29;90.52
22025;BME280;11176;51.448;6.650;2023-01-25T04:39:28;45773.94;;;-141.29;90.29
22025;BME280;11176;51.448;6.650;2023-01-25T04:41:55;45761.97;;;-141.29;91.22
22025;BME280;11176;51.448;6.650;2023-01-25T04:44:22;45745.97;;;-141.29;91.05
22025;BME280;11176;51.448;6.650;2023-01-25T04:46:49;45773.94;;;-141.29;90.78
22025;BME280;11176;51.448;6.650;2023-01-25T04:49:17;45769.97;;;-141.29;91.63
22025;BME280;11176;51.448;6.650;2023-01-25T04:51:43;45761.97;;;-141.29;90.52
22025;BME280;11176;51.448;6.650;2023-01-25T04:54:10;45741.97;;;-141.29;90.58
22025;BME280;11176;51.448;6.650;2023-01-25T04:56:36;45773.94;;;-141.29;90.89
22025;BME280;11176;51.448;6.650;2023-01-25T04:59:03;45779.94;;;-141.29;90.23
22025;BME280;11176;51.448;6.650;2023-01-25T05:01:31;45765.97;;;-141.29;90.75
22025;BME280;11176;51.448;6.650;2023-01-25T05:04:00;45761.97;;;-141.29;91.14
22025;BME280;11176;51.448;6.650;2023-01-25T05:06:35;45741.97;;;-141.29;90.97
22025;BME280;11176;51.448;6.650;2023-01-25T05:09:02;45765.97;;;-141.29;91.03
22025;BME280;11176;51.448;6.650;2023-01-25T05:11:29;45769.97;;;-141.29;90.84
22025;BME280;11176;51.448;6.650;2023-01-25T05:14:09;45773.94;;;-141.29;90.98
22025;BME280;11176;51.448;6.650;2023-01-25T05:16:35;45771.94;;;-141.29;91.43
22025;BME280;11176;51.448;6.650;2023-01-25T05:19:02;45761.97;;;-141.29;91.58
22025;BME280;11176;51.448;6.650;2023-01-25T05:21:36;45757.97;;;-141.29;91.49
22025;BME280;11176;51.448;6.650;2023-01-25T05:24:22;45757.97;;;-141.29;90.96
22025;BME280;11176;51.448;6.650;2023-01-25T05:26:48;45771.94;;;-141.29;91.07
22025;BME280;11176;51.448;6.650;2023-01-25T05:29:57;45769.97;;;-141.29;90.94
22025;BME280;11176;51.448;6.650;2023-01-25T05:32:35;45771.94;;;-141.29;91.18
22025;BME280;11176;51.448;6.650;2023-01-25T05:35:02;45759.97;;;-141.29;91.90
22025;BME280;11176;51.448;6.650;2023-01-25T05:37:29;45773.94;;;-141.29;92.34
22025;BME280;11176;51.448;6.650;2023-01-25T05:40:00;45757.97;;;-141.29;92.41
22025;BME280;11176;51.448;6.650;2023-01-25T05:42:29;45755.97;;;-141.29;92.36
22025;BME280;11176;51.448;6.650;2023-01-25T05:44:56;45777.94;;;-141.29;92.30
22025;BME280;11176;51.448;6.650;2023-01-25T05:47:23;45773.94;;;-141.29;92.07
22025;BME280;11176;51.448;6.650;2023-01-25T05:49:49;45769.97;;;-141.29;91.91
22025;BME280;11176;51.448;6.650;2023-01-25T05:52:28;45773.94;;;-141.29;92.40
22025;BME280;11176;51.448;6.650;2023-01-25T05:54:54;45777.94;;;-141.29;92.89
22025;BME280;11176;51.448;6.650;2023-01-25T05:57:21;45737.97;;;-141.29;92.40
22025;BME280;11176;51.448;6.650;2023-01-25T05:59:48;45763.97;;;-141.29;92.32
22025;BME280;11176;51.448;6.650;2023-01-25T06:02:17;45773.94;;;-141.29;91.65
22025;BME280;11176;51.448;6.650;2023-01-25T06:04:45;45763.97;;;-141.29;91.08
22025;BME280;11176;51.448;6.650;2023-01-25T06:07:13;45781.94;;;-141.29;90.53
22025;BME280;11176;51.448;6.650;2023-01-25T06:09:40;45737.97;;;-141.29;90.42
22025;BME280;11176;51.448;6.650;2023-01-25T06:12:06;45769.97;;;-141.29;90.42
22025;BME280;11176;51.448;6.650;2023-01-25T06:14:33;45761.97;;;-141.29;89.80
22025;BME280;11176;51.448;6.650;2023-01-25T06:17:01;45779.94;;;-141.29;90.85
22025;BME280;11176;51.448;6.650;2023-01-25T06:19:47;45765.97;;;-141.29;90.91
22025;BME280;11176;51.448;6.650;2023-01-25T06:22:37;45773.94;;;-141.29;91.59
22025;BME280;11176;51.448;6.650;2023-01-25T06:25:04;45783.94;;;-141.29;91.08
22025;BME280;11176;51.448;6.650;2023-01-25T06:27:30;45783.94;;;-141.29;90.78
22025;BME280;11176;51.448;6.650;2023-01-25T06:29:57;45757.97;;;-141.29;90.34
22025;BME280;11176;51.448;6.650;2023-01-25T06:32:24;45789.94;;;-141.29;89.36
22025;BME280;11176;51.448;6.650;2023-01-25T06:34:51;45769.97;;;-141.29;89.62
22025;BME280;11176;51.448;6.650;2023-01-25T06:37:19;45761.97;;;-141.29;90.94
22025;BME280;11176;51.448;6.650;2023-01-25T06:39:48;45747.97;;;-141.29;91.67
22025;BME280;11176;51.448;6.650;2023-01-25T06:42:15;45801.94;;;-141.29;92.00
22025;BME280;11176;51.448;6.650;2023-01-25T06:44:41;45793.94;;;-141.29;92.22
22025;BME280;11176;51.448;6.650;2023-01-25T06:47:08;45789.94;;;-141.29;92.10
22025;BME280;11176;51.448;6.650;2023-01-25T06:49:35;45767.97;;;-141.29;92.43
22025;BME280;11176;51.448;6.650;2023-01-25T06:52:02;45779.94;;;-141.29;92.34
22025;BME280;11176;51.448;6.650;2023-01-25T06:54:28;45787.94;;;-141.29;91.30
22025;BME280;11176;51.448;6.650;2023-01-25T06:56:55;45773.94;;;-141.29;91.36
22025;BME280;11176;51.448;6.650;2023-01-25T06:59:21;45767.97;;;-141.29;91.29
22025;BME280;11176;51.448;6.650;2023-01-25T07:01:48;45781.94;;;-141.29;91.60
22025;BME280;11176;51.448;6.650;2023-01-25T07:04:15;45761.97;;;-141.29;91.87
22025;BME280;11176;51.448;6.650;2023-01-25T07:06:42;45755.97;;;-141.29;92.11
22025;BME280;11176;51.448;6.650;2023-01-25T07:09:10;45773.94;;;-141.29;91.36
22025;BME280;11176;51.448;6.650;2023-01-25T07:11:38;45767.97;;;-141.29;91.65
22025;BME280;11176;51.448;6.650;2023-01-25T07:14:04;45769.97;;;-141.29;91.74
22025;BME280;11176;51.448;6.650;2023-01-25T07:16:31;45779.94;;;-141.29;92.34
22025;BME280;11176;51.448;6.650;2023-01-25T07:19:03;45783.94;;;-141.29;93.05
22025;BME280;11176;51.448;6.650;2023-01-25T07:21:30;45775.94;;;-141.29;92.69
22025;BME280;11176;51.448;6.650;2023-01-25T07:24:01;45793.94;;;-141.29;92.40
22025;BME280;11176;51.448;6.650;2023-01-25T07:26:29;45779.94;;;-141.29;92.45
22025;BME280;11176;51.448;6.650;2023-01-25T07:28:57;45773.94;;;-141.29;92.41
22025;BME280;11176;51.448;6.650;2023-01-25T07:31:25;45789.94;;;-141.29;92.24
22025;BME280;11176;51.448;6.650;2023-01-25T07:33:54;45763.97;;;-141.29;92.30
22025;BME280;11176;51.448;6.650;2023-01-25T07:36:21;45789.94;;;-141.29;92.36
22025;BME280;11176;51.448;6.650;2023-01-25T07:38:51;45761.97;;;-141.29;91.92
22025;BME280;11176;51.448;6.650;2023-01-25T07:41:18;45767.97;;;-141.29;91.86
22025;BME280;11176;51.448;6.650;2023-01-25T07:43:45;45777.94;;;-141.29;91.69
22025;BME280;11176;51.448;6.650;2023-01-25T07:46:17;45765.97;;;-141.29;91.39
22025;BME280;11176;51.448;6.650;2023-01-25T07:48:46;45777.94;;;-141.29;91.65
22025;BME280;11176;51.448;6.650;2023-01-25T07:51:15;45761.97;;;-141.29;92.43
22025;BME280;11176;51.448;6.650;2023-01-25T07:53:53;45779.94;;;-141.29;93.09
22025;BME280;11176;51.448;6.650;2023-01-25T07:56:22;45769.97;;;-141.29;92.72
22025;BME280;11176;51.448;6.650;2023-01-25T07:58:51;45765.97;;;-141.29;92.29
22025;BME280;11176;51.448;6.650;2023-01-25T08:01:19;45793.94;;;-141.29;92.01
22025;BME280;11176;51.448;6.650;2023-01-25T08:03:48;45775.94;;;-141.29;91.60
22025;BME280;11176;51.448;6.650;2023-01-25T08:06:16;45793.94;;;-141.29;91.96
22025;BME280;11176;51.448;6.650;2023-01-25T08:08:45;45757.97;;;-141.29;91.27
22025;BME280;11176;51.448;6.650;2023-01-25T08:11:23;45771.94;;;-141.29;91.59
22025;BME280;11176;51.448;6.650;2023-01-25T08:13:50;45773.94;;;-141.29;91.51
22025;BME280;11176;51.448;6.650;2023-01-25T08:16:22;45777.94;;;-141.29;91.25
22025;BME280;11176;51.448;6.650;2023-01-25T08:18:54;45765.97;;;-141.29;91.81
22025;BME280;11176;51.448;6.650;2023-01-25T08:21:22;45773.94;;;-141.29;91.61
22025;BME280;11176;51.448;6.650;2023-01-25T08:23:50;45797.94;;;-141.29;90.71
22025;BME280;11176;51.448;6.650;2023-01-25T08:26:17;45789.94;;;-141.29;91.32
22025;BME280;11176;51.448;6.650;2023-01-25T08:28:43;45781.94;;;-141.29;91.63
22025;BME280;11176;51.448;6.650;2023-01-25T08:31:13;45777.94;;;-141.29;91.08
22025;BME280;11176;51.448;6.650;2023-01-25T08:33:40;45761.97;;;-141.29;91.81
22025;BME280;11176;51.448;6.650;2023-01-25T08:36:08;45765.97;;;-141.29;91.84
22025;BME280;11176;51.448;6.650;2023-01-25T08:38:36;45769.97;;;-141.29;91.54
22025;BME280;11176;51.448;6.650;2023-01-25T08:41:07;45785.94;;;-141.29;90.36
22025;BME280;11176;51.448;6.650;2023-01-25T08:43:34;45771.94;;;-141.29;90.52
22025;BME280;11176;51.448;6.650;2023-01-25T08:46:01;45765.97;;;-141.29;90.74
22025;BME280;11176;51.448;6.650;2023-01-25T08:48:28;45769.97;;;-141.29;91.18
22025;BME280;11176;51.448;6.650;2023-01-25T08:50:54;45789.94;;;-141.29;91.14
22025;BME280;11176;51.448;6.650;2023-01-25T08:53:21;45793.94;;;-141.29;90.18
22025;BME280;11176;51.448;6.650;2023-01-25T08:55:48;45771.94;;;-141.29;89.27
22025;BME280;11176;51.448;6.650;2023-01-25T08:58:15;45797.94;;;-141.29;89.69
22025;BME280;11176;51.448;6.650;2023-01-25T09:00:45;45761.97;;;-141.29;90.15
22025;BME280;11176;51.448;6.650;2023-01-25T09:03:11;45793.94;;;-141.29;90.89
22025;BME280;11176;51.448;6.650;2023-01-25T09:05:38;45761.97;;;-141.29;90.65
22025;BME280;11176;51.448;6.650;2023-01-25T09:08:07;45785.94;;;-141.29;90.63
22025;BME280;11176;51.448;6.650;2023-01-25T09:10:34;45769.97;;;-141.29;90.03
22025;BME280;11176;51.448;6.650;2023-01-25T09:13:01;45785.94;;;-141.29;89.76
22025;BME280;11176;51.448;6.650;2023-01-25T09:15:28;45755.97;;;-141.29;89.83
22025;BME280;11176;51.448;6.650;2023-01-25T09:17:55;45777.94;;;-141.29;89.69
22025;BME280;11176;51.448;6.650;2023-01-25T09:20:23;45775.94;;;-141.29;90.37
22025;BME280;11176;51.448;6.650;2023-01-25T09:22:49;45797.94;;;-141.29;90.11
22025;BME280;11176;51.448;6.650;2023-01-25T09:25:16;45769.97;;;-141.29;90.60
22025;BME280;11176;51.448;6.650;2023-01-25T09:27:43;45773.94;;;-141.29;90.87
22025;BME280;11176;51.448;6.650;2023-01-25T09:30:09;45799.94;;;-141.29;90.80
22025;BME280;11176;51.448;6.650;2023-01-25T09:32:48;45785.94;;;-141.29;91.41
22025;BME280;11176;51.448;6.650;2023-01-25T09:35:15;45769.97;;;-141.29;91.76
22025;BME280;11176;51.448;6.650;2023-01-25T09:37:42;45781.94;;;-141.29;91.95
22025;BME280;11176;51.448;6.650;2023-01-25T09:40:22;45769.97;;;-141.29;91.52
22025;BME280;11176;51.448;6.650;2023-01-25T09:43:26;45769.97;;;-141.29;91.48
22025;BME280;11176;51.448;6.650;2023-01-25T09:45:38;45779.94;;;-141.29;91.77
22025;BME280;11176;51.448;6.650;2023-01-25T09:48:10;45773.94;;;-141.29;91.03
22025;BME280;11176;51.448;6.650;2023-01-25T09:50:51;45753.97;;;-141.29;91.01
22025;BME280;11176;51.448;6.650;2023-01-25T09:53:32;45769.97;;;-141.29;91.80
22025;BME280;11176;51.448;6.650;2023-01-25T09:56:06;45769.97;;;-141.29;91.43
22025;BME280;11176;51.448;6.650;2023-01-25T09:58:39;45755.97;;;-141.29;90.49
22025;BME280;11176;51.448;6.650;2023-01-25T10:01:19;45757.97;;;-141.29;90.07
22025;BME280;11176;51.448;6.650;2023-01-25T10:04:09;45789.94;;;-141.29;89.32
22025;BME280;11176;51.448;6.650;2023-01-25T10:06:40;45789.94;;;-141.29;90.46
22025;BME280;11176;51.448;6.650;2023-01-25T10:09:29;45727.97;;;-141.29;90.25
22025;BME280;11176;51.448;6.650;2023-01-25T10:12:05;45783.94;;;-141.29;90.27
22025;BME280;11176;51.448;6.650;2023-01-25T10:14:34;45761.97;;;-141.29;90.16
22025;BME280;11176;51.448;6.650;2023-01-25T10:17:05;45777.94;;;-141.29;89.45
22025;BME280;11176;51.448;6.650;2023-01-25T10:19:57;45769.97;;;-141.29;90.19
22025;BME280;11176;51.448;6.650;2023-01-25T10:22:33;45791.94;;;-141.29;89.23
22025;BME280;11176;51.448;6.650;2023-01-25T10:33:14;45785.94;;;-141.29;89.14
22025;BME280;11176;51.448;6.650;2023-01-25T10:35:44;45767.97;;;-141.29;89.40
22025;BME280;11176;51.448;6.650;2023-01-25T10:41:19;45769.97;;;-141.29;88.07
22025;BME280;11176;51.448;6.650;2023-01-25T10:43:47;45769.97;;;-141.29;88.08
22025;BME280;11176;51.448;6.650;2023-01-25T10:46:33;45789.94;;;-141.29;89.31
22025;BME280;11176;51.448;6.650;2023-01-25T10:49:08;45775.94;;;-141.29;88.05
22025;BME280;11176;51.448;6.650;2023-01-25T10:51:40;45793.94;;;-141.29;89.39
22025;BME280;11176;51.448;6.650;2023-01-25T10:54:13;45771.94;;;-141.29;89.50
22025;BME280;11176;51.448;6.650;2023-01-25T10:56:42;45781.94;;;-141.29;88.08
22025;BME280;11176;51.448;6.650;2023-01-25T10:59:22;45777.94;;;-141.29;88.84
22025;BME280;11176;51.448;6.650;2023-01-25T11:01:50;45773.94;;;-141.29;88.65
22025;BME280;11176;51.448;6.650;2023-01-25T11:04:29;45773.94;;;-141.29;89.47
22025;BME280;11176;51.448;6.650;2023-01-25T11:06:57;45789.94;;;-141.29;89.42
22025;BME280;11176;51.448;6.650;2023-01-25T11:14:24;45775.94;;;-141.29;87.92
22025;BME280;11176;51.448;6.650;2023-01-25T11:16:55;45763.97;;;-141.29;88.89
22025;BME280;11176;51.448;6.650;2023-01-25T11:19:35;45779.94;;;-141.29;88.44
22025;BME280;11176;51.448;6.650;2023-01-25T11:24:43;45769.97;;;-141.29;88.04
22025;BME280;11176;51.448;6.650;2023-01-25T11:27:19;45765.97;;;-141.29;87.61
22025;BME280;11176;51.448;6.650;2023-01-25T11:30:13;45769.97;;;-141.29;86.97
22025;BME280;11176;51.448;6.650;2023-01-25T11:32:41;45757.97;;;-141.29;87.76
22025;BME280;11176;51.448;6.650;2023-01-25T11:35:13;45775.94;;;-141.29;88.60
22025;BME280;11176;51.448;6.650;2023-01-25T11:38:14;45777.94;;;-141.29;89.52
22025;BME280;11176;51.448;6.650;2023-01-25T11:41:40;45769.97;;;-141.29;89.86
22025;BME280;11176;51.448;6.650;2023-01-25T11:46:49;45781.94;;;-141.29;88.32
22025;BME280;11176;51.448;6.650;2023-01-25T11:55:06;45789.94;;;-141.29;86.85
22025;BME280;11176;51.448;6.650;2023-01-25T11:57:49;45783.94;;;-141.29;88.52
22025;BME280;11176;51.448;6.650;2023-01-25T12:07:15;45777.94;;;-141.29;88.40
22025;BME280;11176;51.448;6.650;2023-01-25T12:09:55;45767.97;;;-141.29;87.92
22025;BME280;11176;51.448;6.650;2023-01-25T12:12:34;45781.94;;;-141.29;88.47
22025;BME280;11176;51.448;6.650;2023-01-25T12:15:30;45773.94;;;-141.29;87.97
22025;BME280;11176;51.448;6.650;2023-01-25T12:24:02;45781.94;;;-141.29;87.90
22025;BME280;11176;51.448;6.650;2023-01-25T12:27:01;45793.94;;;-141.29;88.23
22025;BME280;11176;51.448;6.650;2023-01-25T12:29:51;45785.94;;;-141.29;87.83
22025;BME280;11176;51.448;6.650;2023-01-25T12:32:26;45783.94;;;-141.29;90.22
22025;BME280;11176;51.448;6.650;2023-01-25T12:35:27;45779.94;;;-141.29;89.35
22025;BME280;11176;51.448;6.650;2023-01-25T12:38:00;45807.94;;;-141.29;89.31
22025;BME280;11176;51.448;6.650;2023-01-25T12:46:27;45781.94;;;-141.29;89.16
22025;BME280;11176;51.448;6.650;2023-01-25T12:48:58;45777.94;;;-141.29;89.34
22025;BME280;11176;51.448;6.650;2023-01-25T12:51:35;45781.94;;;-141.29;88.83
22025;BME280;11176;51.448;6.650;2023-01-25T12:54:12;45781.94;;;-141.29;90.23
22025;BME280;11176;51.448;6.650;2023-01-25T12:56:47;45781.94;;;-141.29;90.45
22025;BME280;11176;51.448;6.650;2023-01-25T12:59:38;45789.94;;;-141.29;90.63
22025;BME280;11176;51.448;6.650;2023-01-25T13:02:36;45773.94;;;-141.29;89.71
22025;BME280;11176;51.448;6.650;2023-01-25T13:08:05;45777.94;;;-141.29;88.99
22025;BME280;11176;51.448;6.650;2023-01-25T13:11:17;45777.94;;;-141.29;89.96
22025;BME280;11176;51.448;6.650;2023-01-25T13:13:46;45781.94;;;-141.29;89.72
22025;BME280;11176;51.448;6.650;2023-01-25T13:18:55;45789.94;;;-141.29;90.74
22025;BME280;11176;51.448;6.650;2023-01-25T13:21:42;45773.94;;;-141.29;89.57
22025;BME280;11176;51.448;6.650;2023-01-25T13:24:16;45785.94;;;-141.29;89.96
22025;BME280;11176;51.448;6.650;2023-01-25T13:32:08;45773.94;;;-141.29;90.38
22025;BME280;11176;51.448;6.650;2023-01-25T13:39:53;45789.94;;;-141.29;91.03
22025;BME280;11176;51.448;6.650;2023-01-25T13:42:28;45781.94;;;-141.29;91.03
22025;BME280;11176;51.448;6.650;2023-01-25T13:45:03;45801.94;;;-141.29;91.37
22025;BME280;11176;51.448;6.650;2023-01-25T13:47:38;45785.94;;;-141.29;91.18
22025;BME280;11176;51.448;6.650;2023-01-25T13:50:24;45773.94;;;-141.29;91.21
22025;BME280;11176;51.448;6.650;2023-01-25T13:53:02;45789.94;;;-141.29;91.01
22025;BME280;11176;51.448;6.650;2023-01-25T13:55:40;45783.94;;;-141.29;91.51
22025;BME280;11176;51.448;6.650;2023-01-25T13:58:25;45801.94;;;-141.29;90.83
22025;BME280;11176;51.448;6.650;2023-01-25T14:00:54;45783.94;;;-141.29;91.50
22025;BME280;11176;51.448;6.650;2023-01-25T14:03:28;45809.94;;;-141.29;91.62
22025;BME280;11176;51.448;6.650;2023-01-25T14:05:56;45761.97;;;-141.29;91.42
22025;BME280;11176;51.448;6.650;2023-01-25T14:08:25;45791.94;;;-141.29;91.47
22025;BME280;11176;51.448;6.650;2023-01-25T14:10:52;45773.94;;;-141.29;91.20
22025;BME280;11176;51.448;6.650;2023-01-25T14:13:19;45793.94;;;-141.29;91.60
22025;BME280;11176;51.448;6.650;2023-01-25T14:15:57;45767.97;;;-141.29;90.96